Terminal Aerodrome Forecast
Issued by NWS

Home | Current Version | Previous Version | Text Only | Print | Product List | Glossary On
Versions: 1 2 3 4 5 6 7 8 9 10 11 12 13 14 15 16 17 18
000
FTAK31 PAJN 251700
TAFAGY
TAF
PAGY 251738Z 2518/2618 21020G30KT P6SM -SHRA BKN025 OVC035
     FM260000 21018G30KT P6SM VCSH BKN050
     FM260500 21015G25KT P6SM VCSH BKN050
     FM260900 VRB06KT P6SM VCSH BKN050
     FM261500 03010KT P6SM -SHSN BKN040
      AMD LTD TO CLD VIS AND WIND=

USA.gov is the U.S. government's official web portal to all federal, state and local government web resources and services.